sensor_id;sensor_type;location;lat;lon;timestamp;pressure;altitude;pressure_sealevel;temperature;humidity
18795;BME280;29610;49.022;12.114;2022-07-01T00:01:07;97312.84;;;21.98;100.00
18795;BME280;29610;49.022;12.114;2022-07-01T00:03:36;97313.22;;;22.03;100.00
18795;BME280;29610;49.022;12.114;2022-07-01T00:06:04;97313.97;;;22.07;100.00
18795;BME280;29610;49.022;12.114;2022-07-01T00:08:34;97312.34;;;22.17;100.00
18795;BME280;29610;49.022;12.114;2022-07-01T00:11:07;97321.00;;;22.26;100.00
18795;BME280;29610;49.022;12.114;2022-07-01T00:13:36;97318.13;;;22.40;100.00
18795;BME280;29610;49.022;12.114;2022-07-01T00:16:05;97319.25;;;22.46;100.00
18795;BME280;29610;49.022;12.114;2022-07-01T00:18:33;97326.75;;;22.45;100.00
18795;BME280;29610;49.022;12.114;2022-07-01T00:21:05;97329.16;;;22.43;100.00
18795;BME280;29610;49.022;12.114;2022-07-01T00:23:40;97324.47;;;22.37;100.00
18795;BME280;29610;49.022;12.114;2022-07-01T00:26:10;97338.75;;;22.32;100.00
18795;BME280;29610;49.022;12.114;2022-07-01T00:28:39;97334.06;;;22.22;100.00
18795;BME280;29610;49.022;12.114;2022-07-01T00:31:07;97325.88;;;22.04;100.00
18795;BME280;29610;49.022;12.114;2022-07-01T00:33:36;97336.69;;;21.70;100.00
18795;BME280;29610;49.022;12.114;2022-07-01T00:36:05;97338.19;;;21.93;100.00
18795;BME280;29610;49.022;12.114;2022-07-01T00:38:33;97348.41;;;22.03;100.00
18795;BME280;29610;49.022;12.114;2022-07-01T00:41:06;97364.59;;;22.11;100.00
18795;BME280;29610;49.022;12.114;2022-07-01T00:43:37;97370.94;;;22.05;100.00
18795;BME280;29610;49.022;12.114;2022-07-01T00:46:23;97372.81;;;22.22;100.00
18795;BME280;29610;49.022;12.114;2022-07-01T00:48:58;97380.91;;;22.50;100.00
18795;BME280;29610;49.022;12.114;2022-07-01T00:51:28;97389.22;;;22.50;100.00
18795;BME280;29610;49.022;12.114;2022-07-01T00:53:57;97388.03;;;22.51;100.00
18795;BME280;29610;49.022;12.114;2022-07-01T00:56:28;97393.53;;;22.61;100.00
18795;BME280;29610;49.022;12.114;2022-07-01T00:58:58;97398.34;;;22.54;100.00
18795;BME280;29610;49.022;12.114;2022-07-01T01:01:27;97392.34;;;22.62;100.00
18795;BME280;29610;49.022;12.114;2022-07-01T01:03:56;97387.53;;;22.70;100.00
18795;BME280;29610;49.022;12.114;2022-07-01T01:06:25;97381.97;;;22.73;100.00
18795;BME280;29610;49.022;12.114;2022-07-01T01:08:54;97394.31;;;22.65;100.00
18795;BME280;29610;49.022;12.114;2022-07-01T01:11:23;97405.38;;;22.69;100.00
18795;BME280;29610;49.022;12.114;2022-07-01T01:13:51;97404.59;;;22.61;100.00
18795;BME280;29610;49.022;12.114;2022-07-01T01:16:22;97405.91;;;22.43;100.00
18795;BME280;29610;49.022;12.114;2022-07-01T01:18:53;97409.00;;;22.55;100.00
18795;BME280;29610;49.022;12.114;2022-07-01T01:21:25;97405.84;;;22.57;100.00
18795;BME280;29610;49.022;12.114;2022-07-01T01:23:53;97407.41;;;22.58;100.00
18795;BME280;29610;49.022;12.114;2022-07-01T01:26:22;97404.69;;;22.44;100.00
18795;BME280;29610;49.022;12.114;2022-07-01T01:28:52;97403.09;;;22.53;100.00
18795;BME280;29610;49.022;12.114;2022-07-01T01:31:29;97394.41;;;22.48;100.00
18795;BME280;29610;49.022;12.114;2022-07-01T01:33:58;97395.56;;;22.47;100.00
18795;BME280;29610;49.022;12.114;2022-07-01T01:36:29;97401.50;;;22.49;100.00
18795;BME280;29610;49.022;12.114;2022-07-01T01:38:57;97411.84;;;22.45;100.00
18795;BME280;29610;49.022;12.114;2022-07-01T01:41:28;97399.56;;;22.46;100.00
18795;BME280;29610;49.022;12.114;2022-07-01T01:43:57;97397.94;;;22.48;100.00
18795;BME280;29610;49.022;12.114;2022-07-01T01:46:25;97412.19;;;22.54;100.00
18795;BME280;29610;49.022;12.114;2022-07-01T01:48:56;97405.09;;;22.53;100.00
18795;BME280;29610;49.022;12.114;2022-07-01T01:51:25;97401.53;;;22.52;100.00
18795;BME280;29610;49.022;12.114;2022-07-01T01:53:55;97397.16;;;22.48;100.00
18795;BME280;29610;49.022;12.114;2022-07-01T01:56:24;97399.94;;;22.48;100.00
18795;BME280;29610;49.022;12.114;2022-07-01T01:58:53;97411.44;;;22.43;100.00
18795;BME280;29610;49.022;12.114;2022-07-01T02:01:22;97412.19;;;22.47;100.00
18795;BME280;29610;49.022;12.114;2022-07-01T02:03:52;97418.53;;;22.44;100.00
18795;BME280;29610;49.022;12.114;2022-07-01T02:06:21;97428.44;;;22.45;100.00
18795;BME280;29610;49.022;12.114;2022-07-01T02:08:50;97427.34;;;22.28;100.00
18795;BME280;29610;49.022;12.114;2022-07-01T02:11:19;97424.19;;;22.26;100.00
18795;BME280;29610;49.022;12.114;2022-07-01T02:13:48;97413.59;;;22.11;100.00
18795;BME280;29610;49.022;12.114;2022-07-01T02:16:16;97413.25;;;22.02;100.00
18795;BME280;29610;49.022;12.114;2022-07-01T02:18:45;97406.16;;;21.97;100.00
18795;BME280;29610;49.022;12.114;2022-07-01T02:21:14;97408.16;;;21.90;100.00
18795;BME280;29610;49.022;12.114;2022-07-01T02:23:42;97416.09;;;21.70;100.00
18795;BME280;29610;49.022;12.114;2022-07-01T02:26:11;97412.56;;;21.66;100.00
18795;BME280;29610;49.022;12.114;2022-07-01T02:28:41;97418.09;;;21.66;100.00
18795;BME280;29610;49.022;12.114;2022-07-01T02:31:09;97424.03;;;21.61;100.00
18795;BME280;29610;49.022;12.114;2022-07-01T02:33:38;97419.25;;;21.68;100.00
18795;BME280;29610;49.022;12.114;2022-07-01T02:36:07;97412.16;;;21.64;100.00
18795;BME280;29610;49.022;12.114;2022-07-01T02:38:35;97414.16;;;21.63;100.00
18795;BME280;29610;49.022;12.114;2022-07-01T02:41:07;97418.09;;;21.69;100.00
18795;BME280;29610;49.022;12.114;2022-07-01T02:43:37;97426.78;;;21.64;100.00
18795;BME280;29610;49.022;12.114;2022-07-01T02:46:07;97449.31;;;21.63;100.00
18795;BME280;29610;49.022;12.114;2022-07-01T02:48:36;97455.25;;;21.58;100.00
18795;BME280;29610;49.022;12.114;2022-07-01T02:51:04;97467.09;;;21.58;100.00
18795;BME280;29610;49.022;12.114;2022-07-01T02:53:33;97464.31;;;21.65;100.00
18795;BME280;29610;49.022;12.114;2022-07-01T02:56:04;97467.47;;;21.74;100.00
18795;BME280;29610;49.022;12.114;2022-07-01T02:58:32;97470.63;;;21.77;100.00
18795;BME280;29610;49.022;12.114;2022-07-01T03:01:01;97479.31;;;21.82;100.00
18795;BME280;29610;49.022;12.114;2022-07-01T03:03:33;97485.66;;;21.65;100.00
18795;BME280;29610;49.022;12.114;2022-07-01T03:06:05;97501.84;;;21.66;100.00
18795;BME280;29610;49.022;12.114;2022-07-01T03:08:33;97514.47;;;21.67;100.00
18795;BME280;29610;49.022;12.114;2022-07-01T03:11:05;97505.78;;;21.65;100.00
18795;BME280;29610;49.022;12.114;2022-07-01T03:13:34;97506.19;;;21.64;100.00
18795;BME280;29610;49.022;12.114;2022-07-01T03:16:05;97495.53;;;21.59;100.00
18795;BME280;29610;49.022;12.114;2022-07-01T03:18:35;97501.09;;;21.48;100.00
18795;BME280;29610;49.022;12.114;2022-07-01T03:21:06;97505.06;;;21.30;100.00
18795;BME280;29610;49.022;12.114;2022-07-01T03:23:35;97505.44;;;21.18;100.00
18795;BME280;29610;49.022;12.114;2022-07-01T03:26:06;97495.16;;;21.08;100.00
18795;BME280;29610;49.022;12.114;2022-07-01T03:28:35;97502.69;;;21.04;100.00
18795;BME280;29610;49.022;12.114;2022-07-01T03:31:07;97509.78;;;21.05;100.00
18795;BME280;29610;49.022;12.114;2022-07-01T03:33:37;97505.44;;;21.21;100.00
18795;BME280;29610;49.022;12.114;2022-07-01T03:36:05;97509.38;;;21.27;100.00
18795;BME280;29610;49.022;12.114;2022-07-01T03:38:34;97510.19;;;21.24;100.00
18795;BME280;29610;49.022;12.114;2022-07-01T03:41:06;97509.41;;;21.20;100.00
18795;BME280;29610;49.022;12.114;2022-07-01T03:43:34;97516.50;;;21.35;100.00
18795;BME280;29610;49.022;12.114;2022-07-01T03:46:06;97527.97;;;21.41;100.00
18795;BME280;29610;49.022;12.114;2022-07-01T03:48:35;97547.31;;;21.37;100.00
18795;BME280;29610;49.022;12.114;2022-07-01T03:51:08;97557.94;;;21.32;100.00
18795;BME280;29610;49.022;12.114;2022-07-01T03:53:37;97548.88;;;21.38;100.00
18795;BME280;29610;49.022;12.114;2022-07-01T03:56:23;97550.44;;;21.43;100.00
18795;BME280;29610;49.022;12.114;2022-07-01T03:58:51;97556.00;;;21.39;100.00
18795;BME280;29610;49.022;12.114;2022-07-01T04:01:20;97568.22;;;21.42;100.00
18795;BME280;29610;49.022;12.114;2022-07-01T04:03:50;97578.50;;;21.45;100.00
18795;BME280;29610;49.022;12.114;2022-07-01T04:06:19;97575.34;;;21.32;100.00
18795;BME280;29610;49.022;12.114;2022-07-01T04:08:48;97574.13;;;21.33;100.00
18795;BME280;29610;49.022;12.114;2022-07-01T04:11:17;97576.53;;;21.31;100.00
18795;BME280;29610;49.022;12.114;2022-07-01T04:13:46;97578.50;;;21.34;100.00
18795;BME280;29610;49.022;12.114;2022-07-01T04:16:17;97587.19;;;21.50;100.00
18795;BME280;29610;49.022;12.114;2022-07-01T04:18:47;97581.66;;;21.61;100.00
18795;BME280;29610;49.022;12.114;2022-07-01T04:21:17;97585.59;;;21.74;100.00
18795;BME280;29610;49.022;12.114;2022-07-01T04:24:05;97582.03;;;21.73;100.00
18795;BME280;29610;49.022;12.114;2022-07-01T04:26:34;97583.63;;;21.82;100.00
18795;BME280;29610;49.022;12.114;2022-07-01T04:29:05;97580.09;;;21.78;100.00
18795;BME280;29610;49.022;12.114;2022-07-01T04:31:34;97585.59;;;21.99;100.00
18795;BME280;29610;49.022;12.114;2022-07-01T04:34:03;97595.44;;;22.10;100.00
18795;BME280;29610;49.022;12.114;2022-07-01T04:36:34;97593.91;;;21.95;100.00
18795;BME280;29610;49.022;12.114;2022-07-01T04:39:05;97597.88;;;21.87;100.00
18795;BME280;29610;49.022;12.114;2022-07-01T04:41:34;97602.22;;;21.85;100.00
18795;BME280;29610;49.022;12.114;2022-07-01T04:44:20;97610.13;;;21.79;100.00
18795;BME280;29610;49.022;12.114;2022-07-01T04:46:49;97619.19;;;21.65;100.00
18795;BME280;29610;49.022;12.114;2022-07-01T04:49:18;97616.81;;;21.60;100.00
18795;BME280;29610;49.022;12.114;2022-07-01T04:51:48;97618.00;;;21.56;100.00
18795;BME280;29610;49.022;12.114;2022-07-01T04:54:20;97614.44;;;21.59;100.00
18795;BME280;29610;49.022;12.114;2022-07-01T04:56:49;97620.38;;;21.54;100.00
18795;BME280;29610;49.022;12.114;2022-07-01T04:59:20;97609.31;;;21.71;100.00
18795;BME280;29610;49.022;12.114;2022-07-01T05:01:52;97601.41;;;21.70;100.00
18795;BME280;29610;49.022;12.114;2022-07-01T05:04:20;97601.84;;;21.79;100.00
18795;BME280;29610;49.022;12.114;2022-07-01T05:06:52;97602.59;;;21.87;100.00
18795;BME280;29610;49.022;12.114;2022-07-01T05:09:23;97602.59;;;22.04;100.00
18795;BME280;29610;49.022;12.114;2022-07-01T05:11:53;97606.94;;;22.02;100.00
18795;BME280;29610;49.022;12.114;2022-07-01T05:14:22;97610.47;;;22.06;100.00
18795;BME280;29610;49.022;12.114;2022-07-01T05:16:50;97604.94;;;22.13;100.00
18795;BME280;29610;49.022;12.114;2022-07-01T05:19:19;97612.44;;;22.19;100.00
18795;BME280;29610;49.022;12.114;2022-07-01T05:22:07;97623.13;;;22.17;100.00
18795;BME280;29610;49.022;12.114;2022-07-01T05:24:36;97624.28;;;22.23;100.00
18795;BME280;29610;49.022;12.114;2022-07-01T05:27:05;97628.25;;;22.15;100.00
18795;BME280;29610;49.022;12.114;2022-07-01T05:29:34;97637.38;;;22.16;100.00
18795;BME280;29610;49.022;12.114;2022-07-01T05:32:03;97625.09;;;22.27;100.00
18795;BME280;29610;49.022;12.114;2022-07-01T05:34:32;97634.91;;;22.42;100.00
18795;BME280;29610;49.022;12.114;2022-07-01T05:37:00;97621.47;;;22.55;100.00
18795;BME280;29610;49.022;12.114;2022-07-01T05:39:30;97622.59;;;22.75;100.00
18795;BME280;29610;49.022;12.114;2022-07-01T05:41:59;97615.81;;;22.86;100.00
18795;BME280;29610;49.022;12.114;2022-07-01T05:44:27;97623.97;;;23.11;100.00
18795;BME280;29610;49.022;12.114;2022-07-01T05:46:56;97631.31;;;23.46;100.00
18795;BME280;29610;49.022;12.114;2022-07-01T05:49:24;97632.78;;;23.61;100.00
18795;BME280;29610;49.022;12.114;2022-07-01T05:51:53;97630.91;;;23.98;100.00
18795;BME280;29610;49.022;12.114;2022-07-01T05:54:21;97627.16;;;24.19;100.00
18795;BME280;29610;49.022;12.114;2022-07-01T05:56:51;97630.13;;;24.38;100.00
18795;BME280;29610;49.022;12.114;2022-07-01T05:59:20;97632.88;;;24.79;100.00
18795;BME280;29610;49.022;12.114;2022-07-01T06:01:48;97630.91;;;24.76;100.00
18795;BME280;29610;49.022;12.114;2022-07-01T06:04:18;97634.97;;;24.68;100.00
18795;BME280;29610;49.022;12.114;2022-07-01T06:06:46;97640.72;;;24.50;100.00
18795;BME280;29610;49.022;12.114;2022-07-01T06:09:15;97635.34;;;24.70;100.00
18795;BME280;29610;49.022;12.114;2022-07-01T06:11:43;97641.72;;;24.30;100.00
18795;BME280;29610;49.022;12.114;2022-07-01T06:14:14;97632.56;;;24.33;100.00
18795;BME280;29610;49.022;12.114;2022-07-01T06:16:43;97635.13;;;24.13;100.00
18795;BME280;29610;49.022;12.114;2022-07-01T06:19:12;97621.97;;;24.21;100.00
18795;BME280;29610;49.022;12.114;2022-07-01T06:21:40;97626.59;;;24.34;100.00
18795;BME280;29610;49.022;12.114;2022-07-01T06:24:09;97640.94;;;24.29;100.00
18795;BME280;29610;49.022;12.114;2022-07-01T06:26:37;97653.91;;;23.99;100.00
18795;BME280;29610;49.022;12.114;2022-07-01T06:29:06;97653.22;;;23.81;100.00
18795;BME280;29610;49.022;12.114;2022-07-01T06:31:36;97659.56;;;23.23;100.00
18795;BME280;29610;49.022;12.114;2022-07-01T06:34:05;97667.56;;;23.07;100.00
18795;BME280;29610;49.022;12.114;2022-07-01T06:36:34;97671.16;;;23.00;100.00
18795;BME280;29610;49.022;12.114;2022-07-01T06:39:02;97669.06;;;23.22;100.00
18795;BME280;29610;49.022;12.114;2022-07-01T06:41:31;97677.44;;;23.11;100.00
18795;BME280;29610;49.022;12.114;2022-07-01T06:44:01;97658.03;;;23.11;100.00
18795;BME280;29610;49.022;12.114;2022-07-01T06:46:34;97665.94;;;23.13;100.00
18795;BME280;29610;49.022;12.114;2022-07-01T06:49:04;97675.41;;;23.23;100.00
18795;BME280;29610;49.022;12.114;2022-07-01T06:51:33;97679.78;;;23.17;100.00
18795;BME280;29610;49.022;12.114;2022-07-01T06:54:02;97684.22;;;22.93;100.00
18795;BME280;29610;49.022;12.114;2022-07-01T06:56:31;97683.13;;;22.76;100.00
18795;BME280;29610;49.022;12.114;2022-07-01T06:59:00;97696.19;;;22.79;100.00
18795;BME280;29610;49.022;12.114;2022-07-01T07:01:29;97687.88;;;22.76;100.00
18795;BME280;29610;49.022;12.114;2022-07-01T07:03:58;97687.91;;;22.69;100.00
18795;BME280;29610;49.022;12.114;2022-07-01T07:06:28;97675.28;;;22.43;100.00
18795;BME280;29610;49.022;12.114;2022-07-01T07:08:57;97692.66;;;22.44;100.00
18795;BME280;29610;49.022;12.114;2022-07-01T07:11:25;97699.78;;;22.48;100.00
18795;BME280;29610;49.022;12.114;2022-07-01T07:13:54;97710.09;;;22.44;100.00
18795;BME280;29610;49.022;12.114;2022-07-01T07:16:22;97720.38;;;22.30;100.00
18795;BME280;29610;49.022;12.114;2022-07-01T07:18:52;97728.28;;;22.38;100.00
18795;BME280;29610;49.022;12.114;2022-07-01T07:21:20;97723.53;;;22.25;100.00
18795;BME280;29610;49.022;12.114;2022-07-01T07:23:50;97737.38;;;22.07;100.00
18795;BME280;29610;49.022;12.114;2022-07-01T07:26:18;97738.59;;;21.92;100.00
18795;BME280;29610;49.022;12.114;2022-07-01T07:28:50;97738.94;;;21.77;100.00
18795;BME280;29610;49.022;12.114;2022-07-01T07:31:18;97741.72;;;21.80;100.00
18795;BME280;29610;49.022;12.114;2022-07-01T07:33:47;97746.47;;;21.80;100.00
18795;BME280;29610;49.022;12.114;2022-07-01T07:36:18;97741.69;;;21.77;100.00
18795;BME280;29610;49.022;12.114;2022-07-01T07:38:47;97748.78;;;21.70;100.00
18795;BME280;29610;49.022;12.114;2022-07-01T07:41:17;97761.44;;;21.75;100.00
18795;BME280;29610;49.022;12.114;2022-07-01T07:43:45;97764.44;;;21.21;100.00
18795;BME280;29610;49.022;12.114;2022-07-01T07:46:15;97763.56;;;20.99;100.00
18795;BME280;29610;49.022;12.114;2022-07-01T07:48:43;97765.31;;;20.67;100.00
18795;BME280;29610;49.022;12.114;2022-07-01T07:51:12;97762.97;;;20.69;100.00
18795;BME280;29610;49.022;12.114;2022-07-01T07:53:52;97782.94;;;20.49;100.00
18795;BME280;29610;49.022;12.114;2022-07-01T07:56:22;97786.09;;;20.51;100.00
18795;BME280;29610;49.022;12.114;2022-07-01T07:58:50;97780.31;;;20.66;100.00
18795;BME280;29610;49.022;12.114;2022-07-01T08:01:19;97786.84;;;20.44;100.00
18795;BME280;29610;49.022;12.114;2022-07-01T08:03:47;97796.00;;;20.55;100.00
18795;BME280;29610;49.022;12.114;2022-07-01T08:06:17;97791.22;;;20.49;100.00
18795;BME280;29610;49.022;12.114;2022-07-01T08:08:46;97780.44;;;20.29;100.00
18795;BME280;29610;49.022;12.114;2022-07-01T08:11:14;97777.81;;;20.51;100.00
18795;BME280;29610;49.022;12.114;2022-07-01T08:13:44;97781.16;;;20.77;100.00
18795;BME280;29610;49.022;12.114;2022-07-01T08:16:13;97786.09;;;21.08;100.00
18795;BME280;29610;49.022;12.114;2022-07-01T08:18:42;97784.72;;;21.60;100.00
18795;BME280;29610;49.022;12.114;2022-07-01T08:21:10;97795.06;;;21.88;100.00
18795;BME280;29610;49.022;12.114;2022-07-01T08:23:39;97813.22;;;21.78;100.00
18795;BME280;29610;49.022;12.114;2022-07-01T08:26:08;97819.88;;;21.59;100.00
18795;BME280;29610;49.022;12.114;2022-07-01T08:28:38;97817.25;;;21.05;100.00
18795;BME280;29610;49.022;12.114;2022-07-01T08:31:08;97830.31;;;20.54;100.00
18795;BME280;29610;49.022;12.114;2022-07-01T08:33:38;97830.41;;;20.68;100.00
18795;BME280;29610;49.022;12.114;2022-07-01T08:36:08;97826.50;;;20.76;100.00
18795;BME280;29610;49.022;12.114;2022-07-01T08:38:38;97824.09;;;20.71;100.00
18795;BME280;29610;49.022;12.114;2022-07-01T08:41:07;97822.16;;;20.72;100.00
18795;BME280;29610;49.022;12.114;2022-07-01T08:43:35;97813.34;;;21.10;100.00
18795;BME280;29610;49.022;12.114;2022-07-01T08:46:08;97816.69;;;21.47;100.00
18795;BME280;29610;49.022;12.114;2022-07-01T08:48:42;97816.47;;;22.12;100.00
18795;BME280;29610;49.022;12.114;2022-07-01T08:51:11;97813.31;;;22.94;100.00
18795;BME280;29610;49.022;12.114;2022-07-01T08:53:40;97805.03;;;23.87;100.00
18795;BME280;29610;49.022;12.114;2022-07-01T08:56:08;97807.00;;;23.97;100.00
18795;BME280;29610;49.022;12.114;2022-07-01T08:59:10;97817.81;;;23.74;100.00
18795;BME280;29610;49.022;12.114;2022-07-01T09:01:41;97814.25;;;23.70;100.00
18795;BME280;29610;49.022;12.114;2022-07-01T09:04:15;97811.97;;;23.48;100.00
18795;BME280;29610;49.022;12.114;2022-07-01T09:06:45;97805.66;;;23.44;100.00
18795;BME280;29610;49.022;12.114;2022-07-01T09:09:16;97813.91;;;23.58;100.00
18795;BME280;29610;49.022;12.114;2022-07-01T09:11:48;97821.16;;;23.31;100.00
18795;BME280;29610;49.022;12.114;2022-07-01T09:14:22;97833.75;;;23.56;100.00
18795;BME280;29610;49.022;12.114;2022-07-01T09:16:54;97837.19;;;23.85;100.00
18795;BME280;29610;49.022;12.114;2022-07-01T09:19:27;97832.69;;;24.12;100.00
18795;BME280;29610;49.022;12.114;2022-07-01T09:21:58;97838.53;;;24.24;100.00
18795;BME280;29610;49.022;12.114;2022-07-01T09:24:30;97843.66;;;24.33;100.00
18795;BME280;29610;49.022;12.114;2022-07-01T09:27:00;97850.66;;;23.79;100.00
18795;BME280;29610;49.022;12.114;2022-07-01T09:29:32;97854.03;;;23.36;100.00
18795;BME280;29610;49.022;12.114;2022-07-01T09:32:05;97853.25;;;23.14;100.00
18795;BME280;29610;49.022;12.114;2022-07-01T09:34:36;97845.63;;;23.57;100.00
18795;BME280;29610;49.022;12.114;2022-07-01T09:37:11;97852.38;;;23.52;100.00
18795;BME280;29610;49.022;12.114;2022-07-01T09:39:44;97853.22;;;23.42;100.00
18795;BME280;29610;49.022;12.114;2022-07-01T09:42:13;97869.13;;;23.03;100.00
18795;BME280;29610;49.022;12.114;2022-07-01T09:44:56;97864.75;;;23.12;100.00
18795;BME280;29610;49.022;12.114;2022-07-01T09:47:34;97864.81;;;22.53;100.00
18795;BME280;29610;49.022;12.114;2022-07-01T09:50:04;97869.09;;;22.26;100.00
18795;BME280;29610;49.022;12.114;2022-07-01T09:52:34;97869.00;;;21.94;100.00
18795;BME280;29610;49.022;12.114;2022-07-01T09:55:05;97881.25;;;21.90;100.00
18795;BME280;29610;49.022;12.114;2022-07-01T09:57:35;97870.19;;;21.93;100.00
18795;BME280;29610;49.022;12.114;2022-07-01T10:00:05;97863.94;;;22.07;100.00
18795;BME280;29610;49.022;12.114;2022-07-01T10:02:38;97867.03;;;21.95;100.00
18795;BME280;29610;49.022;12.114;2022-07-01T10:05:11;97865.88;;;21.92;100.00
18795;BME280;29610;49.022;12.114;2022-07-01T10:07:54;97880.19;;;22.26;100.00
18795;BME280;29610;49.022;12.114;2022-07-01T10:10:44;97885.34;;;22.41;100.00
18795;BME280;29610;49.022;12.114;2022-07-01T10:13:21;97876.59;;;22.22;100.00
18795;BME280;29610;49.022;12.114;2022-07-01T10:15:53;97874.63;;;22.19;100.00
18795;BME280;29610;49.022;12.114;2022-07-01T10:18:27;97875.41;;;22.26;100.00
18795;BME280;29610;49.022;12.114;2022-07-01T10:20:57;97865.94;;;22.34;100.00
18795;BME280;29610;49.022;12.114;2022-07-01T10:23:37;97862.34;;;22.13;100.00
18795;BME280;29610;49.022;12.114;2022-07-01T10:26:06;97871.84;;;22.08;100.00
18795;BME280;29610;49.022;12.114;2022-07-01T10:28:42;97877.31;;;21.94;100.00
18795;BME280;29610;49.022;12.114;2022-07-01T10:31:14;97878.81;;;21.74;100.00
18795;BME280;29610;49.022;12.114;2022-07-01T10:33:55;97875.38;;;22.02;100.00
18795;BME280;29610;49.022;12.114;2022-07-01T10:36:27;97876.16;;;21.95;100.00
18795;BME280;29610;49.022;12.114;2022-07-01T10:39:16;97887.59;;;21.90;100.00
18795;BME280;29610;49.022;12.114;2022-07-01T10:42:03;97889.06;;;21.66;100.00
18795;BME280;29610;49.022;12.114;2022-07-01T10:45:08;97890.22;;;21.65;100.00
18795;BME280;29610;49.022;12.114;2022-07-01T10:47:39;97889.78;;;21.56;100.00
18795;BME280;29610;49.022;12.114;2022-07-01T10:50:11;97893.94;;;21.22;100.00
18795;BME280;29610;49.022;12.114;2022-07-01T10:53:01;97896.06;;;21.50;100.00
18795;BME280;29610;49.022;12.114;2022-07-01T10:55:37;97906.59;;;21.95;100.00
18795;BME280;29610;49.022;12.114;2022-07-01T10:58:06;97911.34;;;22.02;100.00
18795;BME280;29610;49.022;12.114;2022-07-01T11:00:36;97920.03;;;22.00;100.00
18795;BME280;29610;49.022;12.114;2022-07-01T11:03:21;97920.66;;;21.62;100.00
18795;BME280;29610;49.022;12.114;2022-07-01T11:05:54;97928.97;;;21.72;100.00
18795;BME280;29610;49.022;12.114;2022-07-01T11:08:26;97921.75;;;21.47;100.00
18795;BME280;29610;49.022;12.114;2022-07-01T11:11:00;97934.34;;;21.41;100.00
18795;BME280;29610;49.022;12.114;2022-07-01T11:13:35;97935.00;;;21.24;100.00
18795;BME280;29610;49.022;12.114;2022-07-01T11:16:09;97931.00;;;21.11;100.00
18795;BME280;29610;49.022;12.114;2022-07-01T11:18:39;97928.47;;;20.92;100.00
18795;BME280;29610;49.022;12.114;2022-07-01T11:21:10;97935.03;;;20.77;100.00
18795;BME280;29610;49.022;12.114;2022-07-01T11:23:39;97935.97;;;20.95;100.00
18795;BME280;29610;49.022;12.114;2022-07-01T11:26:22;97932.97;;;21.10;100.00
18795;BME280;29610;49.022;12.114;2022-07-01T11:28:51;97919.41;;;20.95;100.00
18795;BME280;29610;49.022;12.114;2022-07-01T11:31:33;97917.91;;;21.01;100.00
18795;BME280;29610;49.022;12.114;2022-07-01T11:34:06;97923.72;;;20.92;100.00
18795;BME280;29610;49.022;12.114;2022-07-01T11:36:42;97911.88;;;20.95;100.00
18795;BME280;29610;49.022;12.114;2022-07-01T11:39:29;97918.31;;;21.06;100.00
18795;BME280;29610;49.022;12.114;2022-07-01T11:42:03;97924.94;;;20.95;100.00
18795;BME280;29610;49.022;12.114;2022-07-01T11:44:36;97934.63;;;20.75;100.00
18795;BME280;29610;49.022;12.114;2022-07-01T11:47:07;97930.63;;;20.69;100.00
18795;BME280;29610;49.022;12.114;2022-07-01T11:49:44;97927.56;;;20.77;100.00
18795;BME280;29610;49.022;12.114;2022-07-01T11:52:16;97937.72;;;20.66;100.00
18795;BME280;29610;49.022;12.114;2022-07-01T11:54:47;97940.59;;;20.80;100.00
18795;BME280;29610;49.022;12.114;2022-07-01T11:57:18;97942.59;;;20.83;100.00
18795;BME280;29610;49.022;12.114;2022-07-01T11:59:50;97943.16;;;20.99;100.00
18795;BME280;29610;49.022;12.114;2022-07-01T12:02:22;97946.34;;;21.08;100.00
18795;BME280;29610;49.022;12.114;2022-07-01T12:04:51;97940.69;;;20.94;100.00
18795;BME280;29610;49.022;12.114;2022-07-01T12:07:22;97946.22;;;20.51;100.00
18795;BME280;29610;49.022;12.114;2022-07-01T12:09:51;97943.13;;;20.56;100.00
18795;BME280;29610;49.022;12.114;2022-07-01T12:12:22;97942.59;;;20.43;100.00
18795;BME280;29610;49.022;12.114;2022-07-01T12:14:55;97939.13;;;20.50;100.00
18795;BME280;29610;49.022;12.114;2022-07-01T12:17:25;97939.41;;;20.38;100.00
18795;BME280;29610;49.022;12.114;2022-07-01T12:19:55;97946.97;;;20.11;100.00
18795;BME280;29610;49.022;12.114;2022-07-01T12:22:26;97945.94;;;20.22;100.00
18795;BME280;29610;49.022;12.114;2022-07-01T12:25:07;97949.88;;;20.21;100.00
18795;BME280;29610;49.022;12.114;2022-07-01T12:27:37;97948.03;;;20.33;100.00
18795;BME280;29610;49.022;12.114;2022-07-01T12:30:08;97938.53;;;20.30;100.00
18795;BME280;29610;49.022;12.114;2022-07-01T12:32:39;97937.88;;;20.07;100.00
18795;BME280;29610;49.022;12.114;2022-07-01T12:35:09;97936.03;;;20.18;100.00
18795;BME280;29610;49.022;12.114;2022-07-01T12:37:59;97936.09;;;20.21;100.00
18795;BME280;29610;49.022;12.114;2022-07-01T12:40:29;97941.56;;;20.18;100.00
18795;BME280;29610;49.022;12.114;2022-07-01T12:42:57;97947.28;;;20.02;100.00
18795;BME280;29610;49.022;12.114;2022-07-01T12:45:27;97958.06;;;20.14;100.00
18795;BME280;29610;49.022;12.114;2022-07-01T12:47:57;97956.88;;;20.15;100.00
18795;BME280;29610;49.022;12.114;2022-07-01T12:50:28;97961.84;;;20.03;100.00
18795;BME280;29610;49.022;12.114;2022-07-01T12:53:02;97964.59;;;20.03;100.00
18795;BME280;29610;49.022;12.114;2022-07-01T12:55:34;97972.50;;;20.04;100.00
18795;BME280;29610;49.022;12.114;2022-07-01T12:58:07;97976.28;;;19.93;100.00
18795;BME280;29610;49.022;12.114;2022-07-01T13:00:38;97988.75;;;19.80;100.00